createdAt,value
2017-06-11T00:00:38.223Z,96.10
2017-06-11T00:03:05.718Z,96.60
2017-06-11T00:05:33.204Z,96.60
2017-06-11T00:08:01.451Z,96.50
2017-06-11T00:10:28.908Z,96.50
2017-06-11T00:12:56.464Z,96.50
2017-06-11T00:15:24.023Z,96.60
2017-06-11T00:17:51.476Z,96.60
2017-06-11T00:20:18.911Z,96.90
2017-06-11T00:22:46.388Z,97.00
2017-06-11T00:25:13.948Z,97.20
2017-06-11T00:27:41.416Z,97.30
2017-06-11T00:30:08.955Z,97.30
2017-06-11T00:32:36.530Z,97.50
2017-06-11T00:35:03.980Z,97.40
2017-06-11T00:37:31.425Z,97.40
2017-06-11T00:39:58.900Z,97.30
2017-06-11T00:42:26.447Z,97.40
2017-06-11T00:44:53.894Z,97.60
2017-06-11T00:47:21.335Z,97.60
2017-06-11T00:49:48.807Z,97.60
2017-06-11T00:52:16.263Z,97.50
2017-06-11T00:54:43.709Z,97.40
2017-06-11T00:57:11.181Z,97.40
2017-06-11T00:59:38.653Z,97.80
2017-06-11T01:02:06.196Z,97.40
2017-06-11T01:04:33.631Z,97.20
2017-06-11T01:07:01.088Z,97.10
2017-06-11T01:09:28.563Z,96.80
2017-06-11T01:11:56.040Z,96.90
2017-06-11T01:14:23.483Z,97.00
2017-06-11T01:16:50.923Z,97.10
2017-06-11T01:19:18.399Z,97.20
2017-06-11T01:21:45.957Z,97.30
2017-06-11T01:24:13.527Z,97.20
2017-06-11T01:26:40.984Z,97.10
2017-06-11T01:29:08.507Z,97.30
2017-06-11T01:31:35.951Z,97.40
2017-06-11T01:34:03.445Z,97.40
2017-06-11T01:36:30.999Z,97.50
2017-06-11T01:38:58.456Z,97.50
2017-06-11T01:41:25.918Z,97.60
2017-06-11T01:43:53.355Z,97.60
2017-06-11T01:46:20.803Z,97.50
2017-06-11T01:48:48.284Z,97.60
2017-06-11T01:51:15.849Z,97.20
2017-06-11T01:53:43.269Z,97.30
2017-06-11T01:56:10.728Z,97.20
2017-06-11T01:58:38.194Z,97.30
2017-06-11T02:01:05.639Z,97.20
2017-06-11T02:03:33.110Z,97.20
2017-06-11T02:06:00.577Z,97.40
2017-06-11T02:08:28.052Z,97.50
2017-06-11T02:10:56.264Z,97.40
2017-06-11T02:13:23.760Z,97.70
2017-06-11T02:15:51.324Z,97.70
2017-06-11T02:18:18.768Z,97.80
2017-06-11T02:20:46.345Z,97.90
2017-06-11T02:23:13.796Z,97.90
2017-06-11T02:25:41.232Z,97.80
2017-06-11T02:28:08.716Z,97.70
2017-06-11T02:30:36.176Z,97.70
2017-06-11T02:33:03.623Z,97.80
2017-06-11T02:35:31.058Z,97.90
2017-06-11T02:37:58.527Z,97.90
2017-06-11T02:40:26.080Z,97.80
2017-06-11T02:42:53.547Z,97.80
2017-06-11T02:45:21.024Z,97.80
2017-06-11T02:47:48.558Z,97.90
2017-06-11T02:50:16.034Z,97.80
2017-06-11T02:52:43.495Z,97.80
2017-06-11T02:55:11.034Z,97.80
2017-06-11T02:57:38.471Z,97.80
2017-06-11T03:00:05.919Z,97.80
2017-06-11T03:02:33.362Z,97.80
2017-06-11T03:05:00.803Z,97.90
2017-06-11T03:07:28.312Z,97.90
2017-06-11T03:09:55.867Z,97.80
2017-06-11T03:12:23.312Z,97.50
2017-06-11T03:14:50.777Z,97.20
2017-06-11T03:17:18.211Z,97.40
2017-06-11T03:19:45.680Z,97.30
2017-06-11T03:22:13.153Z,97.20
2017-06-11T03:24:40.595Z,97.10
2017-06-11T03:27:08.063Z,97.10
2017-06-11T03:29:35.522Z,96.90
2017-06-11T03:32:03.099Z,96.90
2017-06-11T03:34:31.348Z,96.70
2017-06-11T03:36:58.818Z,96.50
2017-06-11T03:39:26.360Z,96.40
2017-06-11T03:41:53.824Z,96.20
2017-06-11T03:44:21.303Z,96.10
2017-06-11T03:46:48.736Z,95.80
2017-06-11T03:49:16.291Z,95.90
2017-06-11T03:51:43.849Z,95.90
2017-06-11T03:54:11.310Z,95.60
2017-06-11T03:56:38.865Z,95.40
2017-06-11T03:59:06.324Z,95.40
2017-06-11T04:01:33.771Z,95.20
2017-06-11T04:04:01.232Z,94.90
2017-06-11T04:06:28.695Z,94.60
2017-06-11T04:08:56.259Z,94.50
2017-06-11T04:11:23.695Z,94.40
2017-06-11T04:13:51.132Z,94.30
2017-06-11T04:16:18.571Z,94.10
2017-06-11T04:18:46.022Z,93.90
2017-06-11T04:21:13.535Z,94.40
2017-06-11T04:23:40.981Z,93.70
2017-06-11T04:26:08.539Z,93.60
2017-06-11T04:28:36.103Z,93.40
2017-06-11T04:31:03.536Z,93.40
2017-06-11T04:33:31.013Z,93.30
2017-06-11T04:35:58.619Z,93.00
2017-06-11T04:38:26.817Z,92.50
2017-06-11T04:40:54.301Z,92.40
2017-06-11T04:43:21.735Z,92.70
2017-06-11T04:45:49.220Z,92.50
2017-06-11T04:48:16.658Z,92.50
2017-06-11T04:50:44.129Z,92.60
2017-06-11T04:53:11.564Z,92.70
2017-06-11T04:55:39.058Z,92.50
2017-06-11T04:58:06.601Z,92.50
2017-06-11T05:00:34.046Z,92.40
2017-06-11T05:03:01.517Z,92.40
2017-06-11T05:05:28.978Z,92.20
2017-06-11T05:07:56.428Z,92.30
2017-06-11T05:10:23.881Z,92.10
2017-06-11T05:12:51.432Z,91.70
2017-06-11T05:15:18.868Z,91.40
2017-06-11T05:17:46.300Z,91.10
2017-06-11T05:20:13.909Z,91.00
2017-06-11T05:22:41.344Z,90.70
2017-06-11T05:25:08.817Z,90.60
2017-06-11T05:27:36.255Z,90.60
2017-06-11T05:30:03.715Z,90.50
2017-06-11T05:32:31.148Z,90.20
2017-06-11T05:34:58.647Z,90.00
2017-06-11T05:37:26.111Z,90.20
2017-06-11T05:39:53.553Z,90.00
2017-06-11T05:42:21.015Z,90.00
2017-06-11T05:44:48.471Z,90.10
2017-06-11T05:47:15.918Z,89.30
2017-06-11T05:49:43.379Z,89.40
2017-06-11T05:52:10.850Z,89.00
2017-06-11T05:54:38.277Z,89.10
2017-06-11T05:57:05.759Z,88.90
2017-06-11T05:59:33.210Z,88.90
2017-06-11T06:02:00.794Z,88.40
2017-06-11T06:04:28.239Z,88.10
2017-06-11T06:06:55.771Z,87.70
2017-06-11T06:09:23.203Z,87.60
2017-06-11T06:11:50.725Z,88.50
2017-06-11T06:14:18.168Z,88.00
2017-06-11T06:16:45.615Z,87.50
2017-06-11T06:19:13.048Z,88.00
2017-06-11T06:21:40.523Z,88.20
2017-06-11T06:24:08.195Z,87.70
2017-06-11T06:26:35.629Z,87.70
2017-06-11T06:29:03.103Z,88.00
2017-06-11T06:31:30.539Z,88.30
2017-06-11T06:33:57.980Z,88.20
2017-06-11T06:36:25.428Z,87.90
2017-06-11T06:38:52.913Z,88.30
2017-06-11T06:41:20.819Z,88.00
2017-06-11T06:43:48.436Z,87.60
2017-06-11T06:46:15.903Z,88.00
2017-06-11T06:48:43.356Z,86.40
2017-06-11T06:51:10.892Z,85.60
2017-06-11T06:53:38.315Z,84.70
2017-06-11T06:56:06.544Z,84.30
2017-06-11T06:58:34.079Z,84.20
2017-06-11T07:01:01.544Z,83.80
2017-06-11T07:03:29.007Z,82.90
2017-06-11T07:05:56.464Z,82.20
2017-06-11T07:08:23.938Z,82.30
2017-06-11T07:10:51.384Z,82.90
2017-06-11T07:13:18.843Z,82.80
2017-06-11T07:15:46.402Z,82.90
2017-06-11T07:18:13.870Z,81.70
2017-06-11T07:20:42.130Z,82.70
2017-06-11T07:23:09.572Z,82.50
2017-06-11T07:25:37.043Z,82.50
2017-06-11T07:28:04.498Z,82.30
2017-06-11T07:30:31.932Z,82.50
2017-06-11T07:32:59.427Z,82.90
2017-06-11T07:35:26.874Z,83.40
2017-06-11T07:37:54.318Z,83.10
2017-06-11T07:40:21.857Z,82.70
2017-06-11T07:42:49.340Z,83.00
2017-06-11T07:45:16.783Z,82.70
2017-06-11T07:47:44.257Z,82.70
2017-06-11T07:50:11.787Z,83.30
2017-06-11T07:52:39.268Z,82.40
2017-06-11T07:55:06.692Z,82.90
2017-06-11T07:57:34.130Z,82.90
2017-06-11T08:00:01.564Z,83.10
2017-06-11T08:02:29.781Z,83.60
2017-06-11T08:04:57.212Z,83.00
2017-06-11T08:07:25.435Z,82.10
2017-06-11T08:09:52.864Z,81.90
2017-06-11T08:12:20.343Z,82.40
2017-06-11T08:14:47.797Z,82.50
2017-06-11T08:17:15.255Z,83.50
2017-06-11T08:19:42.728Z,83.40
2017-06-11T08:22:10.158Z,83.30
2017-06-11T08:24:37.639Z,83.30
2017-06-11T08:27:05.073Z,82.70
2017-06-11T08:29:32.519Z,82.60
2017-06-11T08:31:59.966Z,83.30
2017-06-11T08:34:27.457Z,83.20
2017-06-11T08:36:54.887Z,83.70
2017-06-11T08:39:22.327Z,83.00
2017-06-11T08:41:49.772Z,82.90
2017-06-11T08:44:17.271Z,83.10
2017-06-11T08:46:44.720Z,81.70
2017-06-11T08:49:12.183Z,82.30
2017-06-11T08:51:39.646Z,82.10
2017-06-11T08:54:07.105Z,82.10
2017-06-11T08:56:34.551Z,81.40
2017-06-11T08:59:02.003Z,81.90
2017-06-11T09:01:29.443Z,82.30
2017-06-11T09:03:56.888Z,82.70
2017-06-11T09:06:24.359Z,82.10
2017-06-11T09:08:51.842Z,82.90
2017-06-11T09:11:19.275Z,82.60
2017-06-11T09:13:46.751Z,82.00
2017-06-11T09:16:14.183Z,82.80
2017-06-11T09:18:41.659Z,82.10
2017-06-11T09:21:09.106Z,82.20
2017-06-11T09:23:36.636Z,82.90
2017-06-11T09:26:04.239Z,82.80
2017-06-11T09:28:31.671Z,83.10
2017-06-11T09:30:59.220Z,82.80
2017-06-11T09:33:26.721Z,82.00
2017-06-11T09:35:54.164Z,82.80
2017-06-11T09:38:21.598Z,82.10
2017-06-11T09:40:49.049Z,82.90
2017-06-11T09:43:16.535Z,82.70
2017-06-11T09:45:43.994Z,82.00
2017-06-11T09:48:11.442Z,82.20
2017-06-11T09:50:38.907Z,82.00
2017-06-11T09:53:06.480Z,82.60
2017-06-11T09:55:33.904Z,81.70
2017-06-11T09:58:01.363Z,82.10
2017-06-11T10:00:28.931Z,81.10
2017-06-11T10:02:56.370Z,81.70
2017-06-11T10:05:23.852Z,80.30
2017-06-11T10:07:51.301Z,80.70
2017-06-11T10:10:18.739Z,79.90
2017-06-11T10:12:46.213Z,80.00
2017-06-11T10:15:13.748Z,79.20
2017-06-11T10:17:41.224Z,79.20
2017-06-11T10:20:08.695Z,78.20
2017-06-11T10:22:36.244Z,79.20
2017-06-11T10:25:03.684Z,78.30
2017-06-11T10:27:31.189Z,77.80
2017-06-11T10:29:59.398Z,76.90
2017-06-11T10:32:26.843Z,76.80
2017-06-11T10:34:54.335Z,77.60
2017-06-11T10:37:21.775Z,78.30
2017-06-11T10:39:49.263Z,77.50
2017-06-11T10:42:16.719Z,77.20
2017-06-11T10:44:44.286Z,77.00
2017-06-11T10:47:11.833Z,77.00
2017-06-11T10:49:39.383Z,76.90
2017-06-11T10:52:06.848Z,76.40
2017-06-11T10:54:34.275Z,76.30
2017-06-11T10:57:01.768Z,75.20
2017-06-11T10:59:29.217Z,75.10
2017-06-11T11:01:56.667Z,74.00
2017-06-11T11:04:24.133Z,75.50
2017-06-11T11:06:51.683Z,73.90
2017-06-11T11:09:19.116Z,71.50
2017-06-11T11:11:46.560Z,72.30
2017-06-11T11:14:13.997Z,71.30
2017-06-11T11:16:42.196Z,71.90
2017-06-11T11:19:09.759Z,71.80
2017-06-11T11:21:37.183Z,71.50
2017-06-11T11:24:04.700Z,72.80
2017-06-11T11:26:32.126Z,72.50
2017-06-11T11:28:59.617Z,71.60
2017-06-11T11:31:27.175Z,70.90
2017-06-11T11:33:54.720Z,71.20
2017-06-11T11:36:22.197Z,69.40
2017-06-11T11:38:49.646Z,69.20
2017-06-11T11:41:17.195Z,70.70
2017-06-11T11:43:44.659Z,70.90
2017-06-11T11:46:12.187Z,70.70
2017-06-11T11:48:39.774Z,71.40
2017-06-11T11:51:07.230Z,70.70
2017-06-11T11:53:34.775Z,70.50
2017-06-11T11:56:02.202Z,68.60
2017-06-11T11:58:29.692Z,68.70
2017-06-11T12:00:57.127Z,68.60
2017-06-11T12:03:24.566Z,69.60
2017-06-11T12:05:52.040Z,68.10
2017-06-11T12:08:19.554Z,67.90
2017-06-11T12:10:47.797Z,69.90
2017-06-11T12:13:15.331Z,69.80
2017-06-11T12:15:42.864Z,70.20
2017-06-11T12:18:10.376Z,70.00
2017-06-11T12:20:37.937Z,69.70
2017-06-11T12:23:05.466Z,68.70
2017-06-11T12:25:33.223Z,68.90
2017-06-11T12:28:00.718Z,70.60
2017-06-11T12:30:28.268Z,71.30
2017-06-11T12:32:55.698Z,70.70
2017-06-11T12:35:23.143Z,71.40
2017-06-11T12:37:50.579Z,73.40
2017-06-11T12:40:18.097Z,73.60
2017-06-11T12:42:45.535Z,74.00
2017-06-11T12:45:13.012Z,73.80
2017-06-11T12:47:40.572Z,73.40
2017-06-11T12:50:08.035Z,72.10
2017-06-11T12:52:35.467Z,72.70
2017-06-11T12:55:02.920Z,70.10
2017-06-11T12:57:30.506Z,69.70
2017-06-11T12:59:57.963Z,71.30
2017-06-11T13:02:25.406Z,69.70
2017-06-11T13:04:52.859Z,69.00
2017-06-11T13:07:20.427Z,69.10
2017-06-11T13:09:47.888Z,68.20
2017-06-11T13:12:15.341Z,67.50
2017-06-11T13:14:42.866Z,66.10
2017-06-11T13:17:10.355Z,63.30
2017-06-11T13:19:37.802Z,61.70
2017-06-11T13:22:05.228Z,61.20
2017-06-11T13:24:32.704Z,59.50
2017-06-11T13:27:00.147Z,59.40
2017-06-11T13:29:27.623Z,61.30
2017-06-11T13:31:55.075Z,63.80
2017-06-11T13:34:22.644Z,64.40
2017-06-11T13:36:50.149Z,62.60
2017-06-11T13:39:18.366Z,59.00
2017-06-11T13:41:45.818Z,58.90
2017-06-11T13:44:13.329Z,58.70
2017-06-11T13:46:40.852Z,57.80
2017-06-11T13:49:08.290Z,58.50
2017-06-11T13:51:35.743Z,58.20
2017-06-11T13:54:03.186Z,57.30
2017-06-11T13:56:30.665Z,56.80
2017-06-11T13:58:58.123Z,58.60
2017-06-11T14:01:25.580Z,58.30
2017-06-11T14:03:53.027Z,58.10
2017-06-11T14:06:20.492Z,57.60
2017-06-11T14:08:47.923Z,56.50
2017-06-11T14:11:15.359Z,55.50
2017-06-11T14:13:42.795Z,56.40
2017-06-11T14:16:11.040Z,56.90
2017-06-11T14:18:38.508Z,56.90
2017-06-11T14:21:05.934Z,56.30
2017-06-11T14:23:33.371Z,55.20
2017-06-11T14:26:00.811Z,54.70
2017-06-11T14:28:28.261Z,54.40
2017-06-11T14:30:55.772Z,53.50
2017-06-11T14:33:23.219Z,53.00
2017-06-11T14:35:50.652Z,52.40
2017-06-11T14:38:18.116Z,52.30
2017-06-11T14:40:45.674Z,51.40
2017-06-11T14:43:13.097Z,51.00
2017-06-11T14:45:41.326Z,50.90
2017-06-11T14:48:08.771Z,50.90
2017-06-11T14:50:36.243Z,51.00
2017-06-11T14:53:03.683Z,50.70
2017-06-11T14:55:31.115Z,51.40
2017-06-11T14:57:58.611Z,51.50
2017-06-11T15:00:26.079Z,51.40
2017-06-11T15:02:53.931Z,50.00
2017-06-11T15:05:21.468Z,50.20
2017-06-11T15:07:48.909Z,49.00
2017-06-11T15:10:16.414Z,48.90
2017-06-11T15:12:44.260Z,49.40
2017-06-11T15:15:11.687Z,49.00
2017-06-11T15:17:39.174Z,48.10
2017-06-11T15:20:06.616Z,46.80
2017-06-11T15:22:34.047Z,48.50
2017-06-11T15:25:01.556Z,49.30
2017-06-11T15:27:29.049Z,50.20
2017-06-11T15:29:57.358Z,51.40
2017-06-11T15:32:24.815Z,50.70
2017-06-11T15:34:52.291Z,51.60
2017-06-11T15:37:19.760Z,52.20
2017-06-11T15:39:48.115Z,54.40
2017-06-11T15:42:15.583Z,57.90
2017-06-11T15:44:43.031Z,60.30
2017-06-11T15:47:10.576Z,66.00
2017-06-11T15:49:38.055Z,68.00
2017-06-11T15:52:05.612Z,68.30
2017-06-11T15:54:33.083Z,69.80
2017-06-11T15:57:00.605Z,71.20
2017-06-11T15:59:28.190Z,70.10
2017-06-11T16:01:55.829Z,72.10
2017-06-11T16:04:23.283Z,71.30
2017-06-11T16:06:50.715Z,75.90
2017-06-11T16:09:18.211Z,74.20
2017-06-11T16:11:45.679Z,73.20
2017-06-11T16:14:13.314Z,72.70
2017-06-11T16:16:40.915Z,72.70
2017-06-11T16:19:08.364Z,70.30
2017-06-11T16:21:35.828Z,71.20
2017-06-11T16:24:03.341Z,72.90
2017-06-11T16:26:30.808Z,77.80
2017-06-11T16:28:58.290Z,77.80
2017-06-11T16:31:25.728Z,75.80
2017-06-11T16:33:53.199Z,73.40
2017-06-11T16:36:20.667Z,69.80
2017-06-11T16:38:48.219Z,70.10
2017-06-11T16:41:15.662Z,70.70
2017-06-11T16:43:43.123Z,70.70
2017-06-11T16:46:10.550Z,69.60
2017-06-11T16:48:38.039Z,70.10
2017-06-11T16:51:05.564Z,70.90
2017-06-11T16:53:33.038Z,72.70
2017-06-11T16:56:00.495Z,70.90
2017-06-11T16:58:27.962Z,70.00
2017-06-11T17:00:55.404Z,70.90
2017-06-11T17:03:22.850Z,71.40
2017-06-11T17:05:50.323Z,72.60
2017-06-11T17:08:17.782Z,73.10
2017-06-11T17:10:45.236Z,74.20
2017-06-11T17:13:12.692Z,73.30
2017-06-11T17:15:40.158Z,76.70
2017-06-11T17:18:07.598Z,78.40
2017-06-11T17:20:35.059Z,79.30
2017-06-11T17:23:02.523Z,81.20
2017-06-11T17:25:29.955Z,83.80
2017-06-11T17:27:57.438Z,85.80
2017-06-11T17:30:24.885Z,89.50
2017-06-11T17:32:53.304Z,90.80
2017-06-11T17:35:21.520Z,92.50
2017-06-11T17:37:48.996Z,92.40
2017-06-11T17:40:16.445Z,93.80
2017-06-11T17:42:43.908Z,94.60
2017-06-11T17:45:11.445Z,94.50
2017-06-11T17:47:38.880Z,94.90
2017-06-11T17:50:06.387Z,96.40
2017-06-11T17:52:33.827Z,96.90
2017-06-11T17:55:01.299Z,97.00
2017-06-11T17:57:28.804Z,97.60
2017-06-11T17:59:56.261Z,97.70
2017-06-11T18:02:23.709Z,98.50
2017-06-11T18:04:51.188Z,98.20
2017-06-11T18:07:19.131Z,98.60
2017-06-11T18:09:46.653Z,98.90
2017-06-11T18:12:14.843Z,99.40
2017-06-11T18:14:42.288Z,99.40
2017-06-11T18:17:09.792Z,99.50
2017-06-11T18:19:37.260Z,99.80
2017-06-11T18:22:04.700Z,99.90
2017-06-11T18:24:32.156Z,99.90
2017-06-11T18:26:59.628Z,99.90
2017-06-11T18:29:27.085Z,99.90
2017-06-11T18:31:54.520Z,99.90
2017-06-11T18:34:21.990Z,99.90
2017-06-11T18:36:49.464Z,99.90
2017-06-11T18:39:16.991Z,99.90
2017-06-11T18:41:44.446Z,99.90
2017-06-11T18:44:11.908Z,99.90
2017-06-11T18:46:39.355Z,99.90
2017-06-11T18:49:06.817Z,99.90
2017-06-11T18:51:34.288Z,99.90
2017-06-11T18:54:01.744Z,99.90
2017-06-11T18:56:29.299Z,99.90
2017-06-11T18:58:56.722Z,99.90
2017-06-11T19:01:24.215Z,99.90
2017-06-11T19:03:51.691Z,99.90
2017-06-11T19:06:19.131Z,99.90
2017-06-11T19:08:46.565Z,99.90
2017-06-11T19:11:14.012Z,99.90
2017-06-11T19:13:41.469Z,99.90
2017-06-11T19:16:08.959Z,99.90
2017-06-11T19:18:36.419Z,99.90
2017-06-11T19:21:03.876Z,99.90
2017-06-11T19:23:31.407Z,99.90
2017-06-11T19:25:58.974Z,99.90
2017-06-11T19:28:26.605Z,99.90
2017-06-11T19:30:54.059Z,99.90
2017-06-11T19:33:21.604Z,99.90
2017-06-11T19:35:49.055Z,99.90
2017-06-11T19:38:16.499Z,99.90
2017-06-11T19:40:44.770Z,99.90
2017-06-11T19:43:12.989Z,99.90
2017-06-11T19:45:40.432Z,99.90
2017-06-11T19:48:07.885Z,99.90
2017-06-11T19:50:35.329Z,99.90
2017-06-11T19:53:02.844Z,99.90
2017-06-11T19:55:30.291Z,99.90
2017-06-11T19:57:57.731Z,99.90
2017-06-11T20:00:25.310Z,99.90
2017-06-11T20:02:53.144Z,99.90
2017-06-11T20:05:20.722Z,99.90
2017-06-11T20:07:48.171Z,99.90
2017-06-11T20:10:15.702Z,99.90
2017-06-11T20:12:43.209Z,99.90
2017-06-11T20:15:10.640Z,99.90
2017-06-11T20:17:38.083Z,99.90
2017-06-11T20:20:05.527Z,99.90
2017-06-11T20:22:32.958Z,99.90
2017-06-11T20:25:01.195Z,99.90
2017-06-11T20:27:28.635Z,99.90
2017-06-11T20:29:56.068Z,99.90
2017-06-11T20:32:23.565Z,99.90
2017-06-11T20:34:51.023Z,99.90
2017-06-11T20:37:18.475Z,99.90
2017-06-11T20:39:45.923Z,99.90
2017-06-11T20:42:13.400Z,99.90
2017-06-11T20:44:40.962Z,99.90
2017-06-11T20:47:08.506Z,99.90
2017-06-11T20:49:35.979Z,99.90
2017-06-11T20:52:03.429Z,99.90
2017-06-11T20:54:30.983Z,99.90
2017-06-11T20:56:58.437Z,99.90
2017-06-11T20:59:25.900Z,99.90
2017-06-11T21:01:53.360Z,99.90
2017-06-11T21:04:20.790Z,99.90
2017-06-11T21:06:48.248Z,99.90
2017-06-11T21:09:15.751Z,99.90
2017-06-11T21:11:43.279Z,99.90
2017-06-11T21:14:10.737Z,99.90
2017-06-11T21:16:38.192Z,99.90
2017-06-11T21:19:05.662Z,99.90
2017-06-11T21:21:33.202Z,99.90
2017-06-11T21:24:00.661Z,99.90
2017-06-11T21:26:28.109Z,99.90
2017-06-11T21:28:55.678Z,99.90
2017-06-11T21:31:23.128Z,99.90
2017-06-11T21:33:50.591Z,99.90
2017-06-11T21:36:18.155Z,99.90
2017-06-11T21:38:45.603Z,99.90
2017-06-11T21:41:13.154Z,99.90
2017-06-11T21:43:40.611Z,99.90
2017-06-11T21:46:08.454Z,99.90
2017-06-11T21:48:35.894Z,99.90
2017-06-11T21:51:03.500Z,99.90
2017-06-11T21:53:30.968Z,99.90
2017-06-11T21:55:58.430Z,99.90
2017-06-11T21:58:26.660Z,99.90
2017-06-11T22:00:54.146Z,99.90
2017-06-11T22:03:21.577Z,99.90
2017-06-11T22:05:49.027Z,99.90
2017-06-11T22:08:16.508Z,99.90
2017-06-11T22:10:43.963Z,99.90
2017-06-11T22:13:11.404Z,99.90
2017-06-11T22:15:38.859Z,99.90
2017-06-11T22:18:06.303Z,99.90
2017-06-11T22:20:33.733Z,99.90
2017-06-11T22:23:01.951Z,99.90
2017-06-11T22:25:29.403Z,99.90
2017-06-11T22:27:56.876Z,99.90
2017-06-11T22:30:24.514Z,99.90
2017-06-11T22:32:53.208Z,99.90
2017-06-11T22:35:20.652Z,99.90
2017-06-11T22:37:48.136Z,99.90
2017-06-11T22:40:15.592Z,99.90
2017-06-11T22:42:43.039Z,99.90
2017-06-11T22:45:10.499Z,99.90
2017-06-11T22:47:37.951Z,99.90
2017-06-11T22:50:05.413Z,99.90
2017-06-11T22:52:32.869Z,99.90
2017-06-11T22:55:00.311Z,99.90
2017-06-11T22:57:27.778Z,99.90
2017-06-11T22:59:55.247Z,99.90
2017-06-11T23:02:22.684Z,99.90
2017-06-11T23:04:50.151Z,99.90
2017-06-11T23:07:17.606Z,99.90
2017-06-11T23:09:45.075Z,99.90
2017-06-11T23:12:12.524Z,99.90
2017-06-11T23:14:39.963Z,99.90
2017-06-11T23:17:07.407Z,99.90
2017-06-11T23:19:34.860Z,99.90
2017-06-11T23:22:02.323Z,99.90
2017-06-11T23:24:29.901Z,99.90
2017-06-11T23:26:57.473Z,99.90
2017-06-11T23:29:24.935Z,99.90
2017-06-11T23:31:52.480Z,99.90
2017-06-11T23:34:19.936Z,99.90
2017-06-11T23:36:47.491Z,99.90
2017-06-11T23:39:14.943Z,99.90
2017-06-11T23:41:42.508Z,99.90
2017-06-11T23:44:09.959Z,99.90
2017-06-11T23:46:37.464Z,99.90
2017-06-11T23:49:05.701Z,99.90
2017-06-11T23:51:33.187Z,99.90
2017-06-11T23:54:00.604Z,99.90
2017-06-11T23:56:28.065Z,99.90
2017-06-11T23:58:55.550Z,99.90
